createdAt,value
2018-11-01T00:02:09.398Z,15.40
2018-11-01T00:04:36.336Z,17.63
2018-11-01T00:07:04.310Z,16.57
2018-11-01T00:09:31.216Z,14.83
2018-11-01T00:11:58.133Z,14.17
2018-11-01T00:14:25.084Z,12.77
2018-11-01T00:16:52.045Z,15.37
2018-11-01T00:19:19.101Z,17.17
2018-11-01T00:21:46.672Z,22.83
2018-11-01T00:24:13.679Z,24.53
2018-11-01T00:26:40.595Z,23.50
2018-11-01T00:29:07.495Z,20.27
2018-11-01T00:31:34.541Z,18.13
2018-11-01T00:34:01.484Z,18.87
2018-11-01T00:36:28.376Z,18.47
2018-11-01T00:38:55.324Z,15.87
2018-11-01T00:41:22.302Z,13.67
2018-11-01T00:43:49.215Z,15.33
2018-11-01T00:46:16.158Z,15.60
2018-11-01T00:48:43.098Z,18.87
2018-11-01T00:51:10.031Z,20.77
2018-11-01T00:53:37.916Z,17.20
2018-11-01T00:56:04.910Z,13.13
2018-11-01T00:58:31.881Z,18.30
2018-11-01T01:00:58.831Z,14.63
2018-11-01T01:03:25.749Z,19.27
2018-11-01T01:05:52.689Z,17.87
2018-11-01T01:08:19.617Z,14.07
2018-11-01T01:10:46.543Z,16.60
2018-11-01T01:13:13.528Z,15.00
2018-11-01T01:15:40.485Z,16.63
2018-11-01T01:18:07.401Z,16.70
2018-11-01T01:20:34.347Z,16.93
2018-11-01T01:23:01.208Z,17.20
2018-11-01T01:25:28.152Z,14.00
2018-11-01T01:27:55.127Z,16.53
2018-11-01T01:30:22.062Z,17.63
2018-11-01T01:32:49.620Z,15.40
2018-11-01T01:35:17.487Z,15.70
2018-11-01T01:37:44.741Z,17.10
2018-11-01T01:40:11.742Z,19.37
2018-11-01T01:42:44.536Z,16.10
2018-11-01T01:45:11.460Z,18.37
2018-11-01T01:47:38.376Z,16.63
2018-11-01T01:50:08.048Z,17.03
2018-11-01T01:52:35.067Z,18.50
2018-11-01T01:55:02.055Z,22.90
2018-11-01T01:57:29.013Z,17.17
2018-11-01T01:59:55.957Z,19.70
2018-11-01T02:02:23.131Z,18.47
2018-11-01T02:04:50.115Z,17.27
2018-11-01T02:07:18.026Z,18.93
2018-11-01T02:09:45.280Z,18.83
2018-11-01T02:12:12.183Z,17.87
2018-11-01T02:14:39.103Z,17.40
2018-11-01T02:17:06.063Z,17.07
2018-11-01T02:19:33.031Z,22.30
2018-11-01T02:22:00.748Z,21.60
2018-11-01T02:24:27.646Z,16.90
2018-11-01T02:26:54.632Z,17.77
2018-11-01T02:29:21.530Z,18.77
2018-11-01T02:31:48.454Z,17.40
2018-11-01T02:34:15.375Z,21.60
2018-11-01T02:36:42.354Z,19.50
2018-11-01T02:39:10.548Z,17.57
2018-11-01T02:41:37.487Z,18.73
2018-11-01T02:44:04.840Z,17.47
2018-11-01T02:46:31.790Z,19.70
2018-11-01T02:48:58.715Z,19.43
2018-11-01T02:51:26.296Z,19.57
2018-11-01T02:53:53.225Z,17.47
2018-11-01T02:56:20.136Z,17.83
2018-11-01T02:58:47.065Z,19.97
2018-11-01T03:01:18.320Z,18.47
2018-11-01T03:03:46.532Z,21.10
2018-11-01T03:06:13.463Z,16.97
2018-11-01T03:08:40.492Z,21.47
2018-11-01T03:11:07.436Z,18.43
2018-11-01T03:13:34.352Z,18.07
2018-11-01T03:16:01.310Z,24.03
2018-11-01T03:18:28.307Z,25.67
2018-11-01T03:20:55.270Z,21.17
2018-11-01T03:23:22.221Z,21.87
2018-11-01T03:25:49.174Z,20.63
2018-11-01T03:28:16.108Z,24.03
2018-11-01T03:30:43.031Z,19.53
2018-11-01T03:33:10.548Z,21.63
2018-11-01T03:35:37.570Z,24.63
2018-11-01T03:38:04.810Z,20.37
2018-11-01T03:40:31.780Z,21.33
2018-11-01T03:42:58.693Z,22.23
2018-11-01T03:45:25.673Z,20.13
2018-11-01T03:47:52.541Z,19.63
2018-11-01T03:50:19.526Z,20.33
2018-11-01T03:52:46.441Z,22.73
2018-11-01T03:55:13.337Z,23.07
2018-11-01T03:57:40.911Z,24.63
2018-11-01T04:00:09.775Z,20.33
2018-11-01T04:02:36.720Z,23.00
2018-11-01T04:05:03.675Z,23.23
2018-11-01T04:07:30.584Z,22.07
2018-11-01T04:09:57.503Z,23.80
2018-11-01T04:12:24.407Z,19.90
2018-11-01T04:14:51.372Z,27.60
2018-11-01T04:17:18.452Z,21.20
2018-11-01T04:19:45.408Z,20.60
2018-11-01T04:22:13.000Z,21.23
2018-11-01T04:24:39.934Z,22.10
2018-11-01T04:27:06.880Z,19.63
2018-11-01T04:29:35.097Z,20.97
2018-11-01T04:36:57.800Z,22.27
2018-11-01T04:39:24.747Z,27.10
2018-11-01T04:41:51.729Z,29.63
2018-11-01T04:44:18.720Z,32.30
2018-11-01T04:46:45.756Z,23.17
2018-11-01T04:49:12.671Z,24.10
2018-11-01T04:51:39.651Z,22.03
2018-11-01T04:54:06.607Z,23.37
2018-11-01T04:56:33.883Z,20.53
2018-11-01T04:59:00.923Z,25.43
2018-11-01T05:01:27.906Z,22.47
2018-11-01T05:03:55.144Z,23.73
2018-11-01T05:06:22.170Z,21.13
2018-11-01T05:08:49.216Z,20.10
2018-11-01T05:11:16.734Z,20.63
2018-11-01T05:13:43.698Z,23.90
2018-11-01T05:16:10.583Z,22.10
2018-11-01T05:18:37.593Z,23.50
2018-11-01T05:21:04.559Z,22.47
2018-11-01T05:23:31.463Z,24.50
2018-11-01T05:25:58.465Z,24.67
2018-11-01T05:28:25.288Z,22.03
2018-11-01T05:30:52.191Z,24.57
2018-11-01T05:33:19.229Z,28.13
2018-11-01T05:35:46.130Z,24.63
2018-11-01T05:38:13.074Z,25.00
2018-11-01T05:40:40.058Z,24.60
2018-11-01T05:43:07.026Z,26.87
2018-11-01T05:45:33.923Z,27.37
2018-11-01T05:48:00.850Z,30.40
2018-11-01T05:50:27.759Z,31.60
2018-11-01T05:52:54.669Z,29.70
2018-11-01T05:55:21.608Z,25.53
2018-11-01T05:57:48.541Z,25.33
2018-11-01T06:00:15.500Z,24.00
2018-11-01T06:02:45.431Z,26.37
2018-11-01T06:05:12.342Z,25.47
2018-11-01T06:07:45.963Z,28.47
2018-11-01T06:10:12.883Z,29.23
2018-11-01T06:12:40.073Z,26.80
2018-11-01T06:15:08.028Z,27.33
2018-11-01T06:17:34.998Z,31.17
2018-11-01T06:20:01.982Z,48.77
2018-11-01T06:22:29.027Z,27.20
2018-11-01T06:24:55.952Z,31.13
2018-11-01T06:27:22.889Z,30.10
2018-11-01T06:29:49.838Z,26.97
2018-11-01T06:32:16.798Z,32.43
2018-11-01T06:34:47.524Z,30.27
2018-11-01T06:37:15.080Z,33.00
2018-11-01T06:39:42.836Z,30.47
2018-11-01T06:42:09.876Z,33.80
2018-11-01T06:44:36.889Z,34.93
2018-11-01T06:47:03.932Z,33.37
2018-11-01T06:49:30.904Z,34.23
2018-11-01T06:51:57.842Z,32.57
2018-11-01T06:54:24.838Z,31.90
2018-11-01T06:56:51.846Z,31.37
2018-11-01T06:59:19.073Z,35.57
2018-11-01T07:01:58.949Z,34.03
2018-11-01T07:04:25.938Z,36.07
2018-11-01T07:06:52.856Z,39.03
2018-11-01T07:09:19.783Z,35.27
2018-11-01T07:11:46.686Z,41.93
2018-11-01T07:14:13.785Z,38.93
2018-11-01T07:16:40.815Z,43.50
2018-11-01T07:19:08.186Z,35.53
2018-11-01T07:21:35.105Z,36.67
2018-11-01T07:24:02.057Z,41.17
2018-11-01T07:26:29.396Z,36.70
2018-11-01T07:28:57.076Z,39.07
2018-11-01T07:31:24.028Z,40.73
2018-11-01T07:33:51.061Z,37.87
2018-11-01T07:36:18.820Z,36.30
2018-11-01T07:38:45.746Z,36.70
2018-11-01T07:41:12.727Z,37.90
2018-11-01T07:43:39.619Z,38.37
2018-11-01T07:46:06.564Z,34.57
2018-11-01T07:48:33.585Z,33.23
2018-11-01T07:51:00.476Z,38.47
2018-11-01T07:53:27.383Z,40.83
2018-11-01T07:55:54.319Z,34.97
2018-11-01T07:58:21.468Z,31.87
2018-11-01T08:00:48.399Z,37.93
2018-11-01T08:03:15.356Z,43.43
2018-11-01T08:05:42.323Z,40.60
2018-11-01T08:08:09.278Z,36.27
2018-11-01T08:10:36.221Z,41.17
2018-11-01T08:13:03.387Z,39.23
2018-11-01T08:15:31.002Z,31.17
2018-11-01T08:17:58.674Z,42.27
2018-11-01T08:20:26.642Z,77.30
2018-11-01T08:22:53.542Z,41.83
2018-11-01T08:25:20.497Z,36.27
2018-11-01T08:27:47.492Z,41.50
2018-11-01T08:30:15.633Z,32.13
2018-11-01T08:32:43.207Z,36.70
2018-11-01T08:35:11.241Z,37.70
2018-11-01T08:37:38.529Z,35.43
2018-11-01T08:40:06.311Z,37.23
2018-11-01T08:42:33.283Z,40.17
2018-11-01T08:45:00.233Z,34.40
2018-11-01T08:47:27.269Z,33.93
2018-11-01T08:49:54.299Z,36.17
2018-11-01T08:52:21.837Z,40.70
2018-11-01T08:54:48.887Z,39.77
2018-11-01T08:57:15.827Z,38.47
2018-11-01T08:59:42.952Z,34.57
2018-11-01T09:02:09.923Z,32.97
2018-11-01T09:04:37.384Z,37.23
2018-11-01T09:07:04.827Z,42.20
2018-11-01T09:09:31.829Z,40.40
2018-11-01T09:11:58.774Z,45.17
2018-11-01T09:14:25.781Z,36.47
2018-11-01T09:16:52.760Z,43.17
2018-11-01T09:19:19.756Z,35.63
2018-11-01T09:21:47.968Z,40.23
2018-11-01T09:24:14.931Z,42.43
2018-11-01T09:26:41.950Z,39.13
2018-11-01T09:29:09.089Z,36.33
2018-11-01T09:31:36.073Z,43.50
2018-11-01T09:34:02.988Z,36.77
2018-11-01T09:36:29.949Z,39.33
2018-11-01T09:38:56.913Z,36.40
2018-11-01T09:41:23.911Z,32.37
2018-11-01T09:43:50.868Z,31.73
2018-11-01T09:46:18.015Z,33.67
2018-11-01T09:48:44.911Z,33.60
2018-11-01T09:51:11.909Z,33.33
2018-11-01T09:53:38.871Z,34.07
2018-11-01T09:56:06.098Z,31.00
2018-11-01T09:58:33.000Z,28.47
2018-11-01T10:01:00.015Z,34.47
2018-11-01T10:03:26.936Z,31.77
2018-11-01T10:05:54.817Z,31.03
2018-11-01T10:08:22.865Z,34.93
2018-11-01T10:10:49.944Z,37.67
2018-11-01T10:13:16.881Z,30.77
2018-11-01T10:15:43.914Z,33.13
2018-11-01T10:18:11.256Z,31.73
2018-11-01T10:20:37.711Z,30.40
2018-11-01T10:23:04.973Z,32.33
2018-11-01T10:25:31.921Z,34.13
2018-11-01T10:27:58.841Z,30.63
2018-11-01T10:30:26.811Z,30.97
2018-11-01T10:32:53.831Z,33.00
2018-11-01T10:35:20.814Z,27.93
2018-11-01T10:37:47.760Z,30.43
2018-11-01T10:40:16.071Z,29.40
2018-11-01T10:42:43.051Z,28.87
2018-11-01T10:45:10.170Z,33.67
2018-11-01T10:47:37.453Z,27.23
2018-11-01T10:50:07.314Z,30.60
2018-11-01T10:52:34.237Z,30.53
2018-11-01T10:55:01.157Z,29.43
2018-11-01T10:57:28.090Z,26.23
2018-11-01T10:59:55.143Z,33.80
2018-11-01T11:02:25.517Z,30.50
2018-11-01T11:04:52.490Z,28.53
2018-11-01T11:07:19.640Z,30.97
2018-11-01T11:09:46.624Z,27.20
2018-11-01T11:12:13.632Z,29.47
2018-11-01T11:14:40.893Z,29.80
2018-11-01T11:17:07.966Z,28.47
2018-11-01T11:19:34.914Z,29.30
2018-11-01T11:22:01.849Z,22.83
2018-11-01T11:24:28.778Z,25.50
2018-11-01T11:26:55.745Z,24.97
2018-11-01T11:29:24.489Z,25.80
2018-11-01T11:31:51.447Z,20.60
2018-11-01T11:34:18.441Z,22.10
2018-11-01T11:36:45.359Z,19.27
2018-11-01T11:39:12.884Z,20.20
2018-11-01T11:41:40.393Z,25.80
2018-11-01T11:44:07.794Z,22.27
2018-11-01T11:46:34.739Z,21.50
2018-11-01T11:49:01.834Z,20.97
2018-11-01T11:51:28.859Z,26.40
2018-11-01T11:53:55.705Z,25.20
2018-11-01T11:56:22.687Z,21.93
2018-11-01T11:58:49.685Z,23.17
2018-11-01T12:01:16.596Z,22.43
2018-11-01T12:03:43.560Z,24.20
2018-11-01T12:06:10.812Z,26.23
2018-11-01T12:08:37.729Z,23.73
2018-11-01T12:11:04.727Z,22.93
2018-11-01T12:13:31.673Z,26.97
2018-11-01T12:15:58.619Z,21.70
2018-11-01T12:18:25.578Z,20.80
2018-11-01T12:20:52.509Z,20.27
2018-11-01T12:23:20.183Z,23.30
2018-11-01T12:25:47.136Z,23.13
2018-11-01T12:28:14.124Z,23.70
2018-11-01T12:30:41.004Z,21.37
2018-11-01T12:33:07.900Z,21.27
2018-11-01T12:35:34.898Z,21.97
2018-11-01T12:38:01.774Z,23.43
2018-11-01T12:40:28.710Z,27.93
2018-11-01T12:42:55.634Z,23.23
2018-11-01T12:45:23.386Z,18.63
2018-11-01T12:47:50.304Z,20.03
2018-11-01T12:50:17.324Z,18.60
2018-11-01T12:52:44.196Z,21.73
2018-11-01T12:55:11.197Z,20.23
2018-11-01T12:57:38.204Z,23.20
2018-11-01T13:00:07.345Z,31.07
2018-11-01T13:02:34.475Z,22.93
2018-11-01T13:05:01.336Z,19.00
2018-11-01T13:07:28.285Z,27.13
2018-11-01T13:09:55.219Z,22.70
2018-11-01T13:12:22.183Z,20.10
2018-11-01T13:14:49.123Z,22.53
2018-11-01T13:17:16.063Z,23.83
2018-11-01T13:19:43.031Z,23.13
2018-11-01T13:22:09.984Z,23.37
2018-11-01T13:24:36.899Z,20.03
2018-11-01T13:27:03.860Z,19.23
2018-11-01T13:29:31.102Z,19.83
2018-11-01T13:31:58.149Z,15.80
2018-11-01T13:34:25.736Z,22.07
2018-11-01T13:36:52.677Z,24.23
2018-11-01T13:39:19.764Z,25.03
2018-11-01T13:41:46.707Z,18.90
2018-11-01T13:44:14.081Z,16.20
2018-11-01T13:46:41.107Z,20.43
2018-11-01T13:49:08.000Z,18.57
2018-11-01T13:51:34.963Z,21.67
2018-11-01T13:54:02.005Z,24.10
2018-11-01T13:56:29.090Z,26.97
2018-11-01T13:58:56.951Z,22.33
2018-11-01T14:01:23.924Z,19.93
2018-11-01T14:03:50.979Z,20.87
2018-11-01T14:06:18.012Z,21.90
2018-11-01T14:08:45.075Z,18.47
2018-11-01T14:16:06.481Z,26.13
2018-11-01T14:18:33.434Z,23.93
2018-11-01T14:21:00.414Z,19.07
2018-11-01T14:23:27.448Z,24.70
2018-11-01T14:25:54.460Z,24.73
2018-11-01T14:28:21.428Z,30.87
2018-11-01T14:30:48.460Z,28.90
2018-11-01T14:33:15.450Z,21.33
2018-11-01T14:35:42.411Z,23.23
2018-11-01T14:38:09.415Z,25.20
2018-11-01T14:40:36.439Z,19.77
2018-11-01T14:43:03.889Z,22.90
2018-11-01T14:45:30.881Z,23.67
2018-11-01T14:47:58.094Z,23.40
2018-11-01T14:50:25.043Z,20.17
2018-11-01T14:52:52.541Z,21.33
2018-11-01T14:55:19.844Z,25.57
2018-11-01T14:57:47.701Z,22.00
2018-11-01T15:00:13.250Z,26.57
2018-11-01T15:02:40.178Z,21.40
2018-11-01T15:05:07.516Z,21.77
2018-11-01T15:07:34.640Z,21.03
2018-11-01T15:10:01.633Z,24.20
2018-11-01T15:12:28.589Z,24.07
2018-11-01T15:14:55.559Z,24.73
2018-11-01T15:17:22.497Z,21.90
2018-11-01T15:19:49.528Z,22.63
2018-11-01T15:22:16.608Z,20.83
2018-11-01T15:24:43.590Z,29.70
2018-11-01T15:27:10.564Z,23.07
2018-11-01T15:29:37.636Z,24.20
2018-11-01T15:32:04.690Z,20.47
2018-11-01T15:34:32.833Z,23.63
2018-11-01T15:37:00.251Z,23.10
2018-11-01T15:39:27.190Z,28.50
2018-11-01T15:41:54.321Z,29.27
2018-11-01T15:44:21.359Z,22.63
2018-11-01T15:46:48.469Z,22.40
2018-11-01T15:49:15.511Z,24.63
2018-11-01T15:51:42.464Z,22.10
2018-11-01T15:54:09.483Z,24.43
2018-11-01T15:56:36.482Z,25.30
2018-11-01T15:59:04.466Z,20.63
2018-11-01T16:01:31.433Z,21.43
2018-11-01T16:03:58.514Z,22.93
2018-11-01T16:06:26.863Z,20.20
2018-11-01T16:08:53.934Z,27.23
2018-11-01T16:11:20.884Z,23.00
2018-11-01T16:13:47.859Z,21.40
2018-11-01T16:16:14.819Z,20.37
2018-11-01T16:18:41.810Z,27.87
2018-11-01T16:21:08.861Z,20.03
2018-11-01T16:23:35.904Z,20.47
2018-11-01T16:26:02.991Z,21.93
2018-11-01T16:28:29.974Z,25.63
2018-11-01T16:30:56.980Z,24.30
2018-11-01T16:33:24.012Z,25.80
2018-11-01T16:35:51.006Z,24.57
2018-11-01T16:38:18.002Z,21.10
2018-11-01T16:40:44.990Z,22.57
2018-11-01T16:43:11.985Z,22.40
2018-11-01T16:45:39.032Z,22.20
2018-11-01T16:48:06.606Z,24.17
2018-11-01T16:50:33.711Z,21.20
2018-11-01T16:53:00.676Z,21.17
2018-11-01T16:55:27.682Z,24.00
2018-11-01T16:57:54.681Z,19.60
2018-11-01T17:00:21.712Z,23.70
2018-11-01T17:02:48.667Z,22.83
2018-11-01T17:05:15.630Z,20.10
2018-11-01T17:07:42.573Z,22.43
2018-11-01T17:10:11.048Z,24.77
2018-11-01T17:12:38.576Z,21.33
2018-11-01T17:15:07.242Z,23.63
2018-11-01T17:17:34.190Z,22.73
2018-11-01T17:20:01.149Z,22.67
2018-11-01T17:22:28.142Z,22.83
2018-11-01T17:24:55.119Z,21.63
2018-11-01T17:27:22.112Z,23.63
2018-11-01T17:29:49.168Z,21.00
2018-11-01T17:32:16.170Z,23.77
2018-11-01T17:34:43.114Z,24.50
2018-11-01T17:37:10.409Z,31.33
2018-11-01T17:39:37.355Z,25.83
2018-11-01T17:42:04.516Z,29.13
2018-11-01T17:44:31.570Z,31.47
2018-11-01T17:46:58.811Z,28.87
2018-11-01T17:49:26.754Z,31.23
2018-11-01T17:51:54.313Z,33.80
2018-11-01T17:54:21.352Z,27.23
2018-11-01T17:56:48.410Z,41.47
2018-11-01T17:59:15.496Z,35.50
2018-11-01T18:01:42.675Z,35.90
2018-11-01T18:04:10.052Z,34.77
2018-11-01T18:06:37.161Z,51.23
2018-11-01T18:09:07.022Z,55.63
2018-11-01T18:11:33.987Z,50.30
2018-11-01T18:14:01.004Z,70.40
2018-11-01T18:16:28.099Z,50.43
2018-11-01T18:18:55.110Z,51.27
2018-11-01T18:21:22.148Z,51.77
2018-11-01T18:23:49.370Z,42.23
2018-11-01T18:26:16.410Z,38.60
2018-11-01T18:28:43.463Z,42.83
2018-11-01T18:31:10.478Z,50.23
2018-11-01T18:33:37.550Z,42.13
2018-11-01T18:36:04.838Z,44.30
2018-11-01T18:38:31.809Z,43.70
2018-11-01T18:40:58.836Z,48.67
2018-11-01T18:43:25.870Z,50.67
2018-11-01T18:45:52.869Z,58.60
2018-11-01T18:48:20.016Z,56.07
2018-11-01T18:50:47.074Z,60.57
2018-11-01T18:53:14.820Z,50.93
2018-11-01T18:55:41.883Z,63.60
2018-11-01T18:58:08.891Z,51.87
2018-11-01T19:00:35.981Z,52.03
2018-11-01T19:03:03.012Z,57.70
2018-11-01T19:05:30.393Z,53.57
2018-11-01T19:07:57.393Z,61.47
2018-11-01T19:10:24.739Z,57.93
2018-11-01T19:12:51.775Z,69.00
2018-11-01T19:15:18.905Z,55.57
2018-11-01T19:17:45.957Z,52.53
2018-11-01T19:20:13.064Z,57.97
2018-11-01T19:22:40.175Z,53.23
2018-11-01T19:25:07.888Z,51.33
2018-11-01T19:27:35.523Z,45.03
2018-11-01T19:30:03.848Z,62.60
2018-11-01T19:32:31.005Z,64.73
2018-11-01T19:34:58.219Z,50.67
2018-11-01T19:37:25.261Z,62.37
2018-11-01T19:39:53.267Z,47.10
2018-11-01T19:42:21.083Z,47.50
2018-11-01T19:44:48.198Z,45.40
2018-11-01T19:47:15.341Z,48.67
2018-11-01T19:49:42.495Z,43.97
2018-11-01T19:52:09.489Z,43.07
2018-11-01T19:54:36.804Z,38.77
2018-11-01T19:57:04.198Z,44.33
2018-11-01T19:59:31.250Z,35.50
2018-11-01T20:01:58.370Z,45.97
2018-11-01T20:04:28.318Z,33.87
2018-11-01T20:06:55.515Z,41.60
2018-11-01T20:09:23.058Z,43.87
2018-11-01T20:11:50.205Z,40.57
2018-11-01T20:14:17.436Z,37.13
2018-11-01T20:16:44.909Z,35.30
2018-11-01T20:19:12.147Z,38.97
2018-11-01T20:21:39.720Z,51.27
2018-11-01T20:24:06.933Z,38.07
2018-11-01T20:26:34.107Z,52.70
2018-11-01T20:29:01.187Z,33.27
2018-11-01T20:31:28.395Z,34.17
2018-11-01T20:33:55.499Z,38.73
2018-11-01T20:36:22.815Z,38.03
2018-11-01T20:38:49.877Z,33.83
2018-11-01T20:41:17.163Z,33.60
2018-11-01T20:43:44.705Z,35.53
2018-11-01T20:46:11.774Z,37.47
2018-11-01T20:48:39.050Z,40.63
2018-11-01T20:51:06.210Z,35.57
2018-11-01T20:53:33.290Z,32.80
2018-11-01T20:56:00.459Z,34.73
2018-11-01T20:58:28.195Z,37.57
2018-11-01T21:00:55.582Z,35.27
2018-11-01T21:03:23.326Z,46.73
2018-11-01T21:05:50.435Z,37.00
2018-11-01T21:08:17.889Z,30.17
2018-11-01T21:10:45.119Z,33.43
2018-11-01T21:13:12.132Z,30.60
2018-11-01T21:15:39.212Z,26.77
2018-11-01T21:18:06.522Z,29.63
2018-11-01T21:20:33.619Z,29.23
2018-11-01T21:23:00.736Z,27.23
2018-11-01T21:25:27.919Z,34.20
2018-11-01T21:27:55.012Z,35.80
2018-11-01T21:30:22.049Z,26.73
2018-11-01T21:32:49.122Z,27.03
2018-11-01T21:35:16.156Z,20.93
2018-11-01T21:37:47.476Z,53.60
2018-11-01T21:40:14.881Z,23.13
2018-11-01T21:42:42.182Z,33.93
2018-11-01T21:45:11.929Z,28.80
2018-11-01T21:47:38.998Z,20.03
2018-11-01T21:50:06.193Z,25.07
2018-11-01T21:52:33.466Z,23.97
2018-11-01T21:55:00.447Z,23.80
2018-11-01T21:57:27.536Z,28.13
2018-11-01T21:59:54.484Z,32.83
2018-11-01T22:02:21.578Z,29.17
2018-11-01T22:04:48.627Z,25.03
2018-11-01T22:07:16.315Z,23.47
2018-11-01T22:09:43.516Z,23.00
2018-11-01T22:12:10.402Z,23.87
2018-11-01T22:14:37.427Z,25.40
2018-11-01T22:17:05.177Z,18.93
2018-11-01T22:19:32.255Z,21.43
2018-11-01T22:21:59.248Z,20.30
2018-11-01T22:24:26.222Z,26.50
2018-11-01T22:26:53.185Z,19.10
2018-11-01T22:34:16.524Z,19.07
2018-11-01T22:36:43.550Z,19.40
2018-11-01T22:39:10.922Z,22.53
2018-11-01T22:41:37.964Z,30.03
2018-11-01T22:44:05.067Z,19.20
2018-11-01T22:46:32.206Z,22.27
2018-11-01T22:48:59.213Z,25.77
2018-11-01T22:51:26.199Z,23.13
2018-11-01T22:53:53.252Z,23.50
2018-11-01T22:56:20.220Z,23.47
2018-11-01T22:58:49.537Z,20.10
2018-11-01T23:01:16.698Z,19.33
2018-11-01T23:03:50.471Z,20.53
2018-11-01T23:06:19.558Z,21.23
2018-11-01T23:08:47.531Z,21.30
2018-11-01T23:11:14.533Z,20.73
2018-11-01T23:13:41.546Z,19.37
2018-11-01T23:16:08.559Z,18.37
2018-11-01T23:18:35.534Z,27.53
2018-11-01T23:21:02.532Z,21.53
2018-11-01T23:23:29.544Z,19.10
2018-11-01T23:25:56.506Z,22.83
2018-11-01T23:28:23.920Z,22.23
2018-11-01T23:30:50.944Z,18.20
2018-11-01T23:33:17.904Z,20.47
2018-11-01T23:35:44.814Z,21.30
2018-11-01T23:38:17.435Z,23.47
2018-11-01T23:40:50.111Z,18.93
2018-11-01T23:43:22.920Z,17.33
2018-11-01T23:45:55.671Z,17.30
2018-11-01T23:48:40.316Z,19.43
2018-11-01T23:51:16.403Z,18.27
2018-11-01T23:53:48.428Z,19.40
2018-11-01T23:56:15.596Z,20.87
2018-11-01T23:58:42.572Z,19.77
